sensor_id;sensor_type;location;lat;lon;timestamp;temperature;humidity
66831;DHT22;53739;44.224;22.528;2023-05-09T00:00:15;333.10;2329.60
66831;DHT22;53739;44.224;22.528;2023-05-09T00:02:41;333.10;2329.60
66831;DHT22;53739;44.224;22.528;2023-05-09T00:05:11;333.00;2329.60
66831;DHT22;53739;44.224;22.528;2023-05-09T00:07:37;333.00;2329.60
66831;DHT22;53739;44.224;22.528;2023-05-09T00:10:03;333.10;2329.60
66831;DHT22;53739;44.224;22.528;2023-05-09T00:12:29;333.10;2329.60
66831;DHT22;53739;44.224;22.528;2023-05-09T00:14:55;333.10;2329.60
66831;DHT22;53739;44.224;22.528;2023-05-09T00:17:24;333.10;2329.60
66831;DHT22;53739;44.224;22.528;2023-05-09T00:19:51;333.10;2329.60
66831;DHT22;53739;44.224;22.528;2023-05-09T00:22:18;333.10;2329.60
66831;DHT22;53739;44.224;22.528;2023-05-09T00:24:49;333.00;2329.60
66831;DHT22;53739;44.224;22.528;2023-05-09T00:27:15;333.00;2329.60
66831;DHT22;53739;44.224;22.528;2023-05-09T00:29:41;333.00;2329.60
66831;DHT22;53739;44.224;22.528;2023-05-09T00:32:07;333.00;2329.60
66831;DHT22;53739;44.224;22.528;2023-05-09T00:34:33;333.10;2329.60
66831;DHT22;53739;44.224;22.528;2023-05-09T00:36:59;333.10;2329.60
66831;DHT22;53739;44.224;22.528;2023-05-09T00:39:26;333.10;2329.60
66831;DHT22;53739;44.224;22.528;2023-05-09T00:41:52;333.00;2329.60
66831;DHT22;53739;44.224;22.528;2023-05-09T00:44:19;332.90;2329.60
66831;DHT22;53739;44.224;22.528;2023-05-09T00:46:45;332.90;2329.60
66831;DHT22;53739;44.224;22.528;2023-05-09T00:49:11;332.90;2329.60
66831;DHT22;53739;44.224;22.528;2023-05-09T00:51:39;332.80;2329.60
66831;DHT22;53739;44.224;22.528;2023-05-09T00:54:05;332.80;2329.60
66831;DHT22;53739;44.224;22.528;2023-05-09T00:56:31;332.80;2329.60
66831;DHT22;53739;44.224;22.528;2023-05-09T00:58:57;332.90;2329.60
66831;DHT22;53739;44.224;22.528;2023-05-09T01:01:23;332.80;2329.60
66831;DHT22;53739;44.224;22.528;2023-05-09T01:03:49;308.10;2304.00
66831;DHT22;53739;44.224;22.528;2023-05-09T01:06:37;332.80;2329.60
66831;DHT22;53739;44.224;22.528;2023-05-09T01:11:51;332.80;2329.60
66831;DHT22;53739;44.224;22.528;2023-05-09T01:14:43;308.10;2304.00
66831;DHT22;53739;44.224;22.528;2023-05-09T01:17:42;308.10;2304.00
66831;DHT22;53739;44.224;22.528;2023-05-09T01:20:34;308.00;2304.00
66831;DHT22;53739;44.224;22.528;2023-05-09T01:31:03;307.80;2304.00
66831;DHT22;53739;44.224;22.528;2023-05-09T01:33:32;307.80;2304.00
66831;DHT22;53739;44.224;22.528;2023-05-09T01:36:03;307.80;2304.00
66831;DHT22;53739;44.224;22.528;2023-05-09T01:38:30;307.80;2304.00
66831;DHT22;53739;44.224;22.528;2023-05-09T01:40:57;307.80;2304.00
66831;DHT22;53739;44.224;22.528;2023-05-09T01:43:27;307.80;2304.00
66831;DHT22;53739;44.224;22.528;2023-05-09T01:45:54;307.80;2304.00
66831;DHT22;53739;44.224;22.528;2023-05-09T01:48:21;307.80;2304.00
66831;DHT22;53739;44.224;22.528;2023-05-09T01:50:52;307.80;2304.00
66831;DHT22;53739;44.224;22.528;2023-05-09T01:53:21;307.80;2304.00
66831;DHT22;53739;44.224;22.528;2023-05-09T01:55:48;307.80;2304.00
66831;DHT22;53739;44.224;22.528;2023-05-09T01:58:15;307.80;2304.00
66831;DHT22;53739;44.224;22.528;2023-05-09T02:00:43;307.80;2304.00
66831;DHT22;53739;44.224;22.528;2023-05-09T02:03:10;307.80;2304.00
66831;DHT22;53739;44.224;22.528;2023-05-09T02:05:36;307.80;2304.00
66831;DHT22;53739;44.224;22.528;2023-05-09T02:08:03;307.80;2304.00
66831;DHT22;53739;44.224;22.528;2023-05-09T02:10:29;307.70;2304.00
66831;DHT22;53739;44.224;22.528;2023-05-09T02:12:55;307.70;2304.00
66831;DHT22;53739;44.224;22.528;2023-05-09T02:15:22;307.60;2304.00
66831;DHT22;53739;44.224;22.528;2023-05-09T02:17:49;307.70;2304.00
66831;DHT22;53739;44.224;22.528;2023-05-09T02:20:14;307.80;2304.00
66831;DHT22;53739;44.224;22.528;2023-05-09T02:22:42;307.80;2304.00
66831;DHT22;53739;44.224;22.528;2023-05-09T02:25:10;307.70;2304.00
66831;DHT22;53739;44.224;22.528;2023-05-09T02:27:37;307.70;2304.00
66831;DHT22;53739;44.224;22.528;2023-05-09T02:30:08;307.70;2304.00
66831;DHT22;53739;44.224;22.528;2023-05-09T02:32:36;307.80;2304.00
66831;DHT22;53739;44.224;22.528;2023-05-09T02:35:04;307.80;2304.00
66831;DHT22;53739;44.224;22.528;2023-05-09T02:37:31;307.70;2304.00
66831;DHT22;53739;44.224;22.528;2023-05-09T02:39:58;307.70;2304.00
66831;DHT22;53739;44.224;22.528;2023-05-09T02:42:24;307.80;2304.00
66831;DHT22;53739;44.224;22.528;2023-05-09T02:44:54;307.70;2304.00
66831;DHT22;53739;44.224;22.528;2023-05-09T02:47:20;307.80;2304.00
66831;DHT22;53739;44.224;22.528;2023-05-09T02:49:47;307.80;2304.00
66831;DHT22;53739;44.224;22.528;2023-05-09T02:52:13;307.80;2304.00
66831;DHT22;53739;44.224;22.528;2023-05-09T02:54:39;307.70;2304.00
66831;DHT22;53739;44.224;22.528;2023-05-09T02:57:05;307.70;2304.00
66831;DHT22;53739;44.224;22.528;2023-05-09T02:59:31;307.80;2304.00
66831;DHT22;53739;44.224;22.528;2023-05-09T03:01:57;307.80;2304.00
66831;DHT22;53739;44.224;22.528;2023-05-09T03:04:23;307.80;2304.00
66831;DHT22;53739;44.224;22.528;2023-05-09T03:06:50;307.70;2304.00
66831;DHT22;53739;44.224;22.528;2023-05-09T03:09:16;307.70;2304.00
66831;DHT22;53739;44.224;22.528;2023-05-09T03:11:42;307.70;2304.00
66831;DHT22;53739;44.224;22.528;2023-05-09T03:14:08;307.60;2304.00
66831;DHT22;53739;44.224;22.528;2023-05-09T03:16:35;307.60;2304.00
66831;DHT22;53739;44.224;22.528;2023-05-09T03:19:01;307.50;2304.00
66831;DHT22;53739;44.224;22.528;2023-05-09T03:21:27;307.50;2304.00
66831;DHT22;53739;44.224;22.528;2023-05-09T03:23:53;307.40;2304.00
66831;DHT22;53739;44.224;22.528;2023-05-09T03:26:19;307.50;2304.00
66831;DHT22;53739;44.224;22.528;2023-05-09T03:28:46;307.40;2304.00
66831;DHT22;53739;44.224;22.528;2023-05-09T03:31:13;307.40;2304.00
66831;DHT22;53739;44.224;22.528;2023-05-09T03:33:39;307.40;2304.00
66831;DHT22;53739;44.224;22.528;2023-05-09T03:36:05;307.40;2304.00
66831;DHT22;53739;44.224;22.528;2023-05-09T03:38:31;307.40;2304.00
66831;DHT22;53739;44.224;22.528;2023-05-09T03:40:57;307.40;2304.00
66831;DHT22;53739;44.224;22.528;2023-05-09T03:43:23;307.40;2304.00
66831;DHT22;53739;44.224;22.528;2023-05-09T03:45:49;307.40;2304.00
66831;DHT22;53739;44.224;22.528;2023-05-09T03:48:14;307.40;2304.00
66831;DHT22;53739;44.224;22.528;2023-05-09T03:50:40;307.40;2304.00
66831;DHT22;53739;44.224;22.528;2023-05-09T03:53:06;307.30;2304.00
66831;DHT22;53739;44.224;22.528;2023-05-09T03:55:32;307.30;2304.00
66831;DHT22;53739;44.224;22.528;2023-05-09T03:57:58;307.30;2304.00
66831;DHT22;53739;44.224;22.528;2023-05-09T04:00:23;307.30;2304.00
66831;DHT22;53739;44.224;22.528;2023-05-09T04:02:51;307.30;2304.00
66831;DHT22;53739;44.224;22.528;2023-05-09T04:05:17;307.30;2304.00
66831;DHT22;53739;44.224;22.528;2023-05-09T04:07:43;307.30;2304.00
66831;DHT22;53739;44.224;22.528;2023-05-09T04:10:10;307.20;2304.00
66831;DHT22;53739;44.224;22.528;2023-05-09T04:12:36;307.20;2304.00
66831;DHT22;53739;44.224;22.528;2023-05-09T04:15:02;282.50;2278.40
66831;DHT22;53739;44.224;22.528;2023-05-09T04:17:28;282.50;2278.40
66831;DHT22;53739;44.224;22.528;2023-05-09T04:19:53;282.50;2278.40
66831;DHT22;53739;44.224;22.528;2023-05-09T04:22:19;282.40;2278.40
66831;DHT22;53739;44.224;22.528;2023-05-09T04:24:45;282.40;2278.40
66831;DHT22;53739;44.224;22.528;2023-05-09T04:27:11;282.30;2278.40
66831;DHT22;53739;44.224;22.528;2023-05-09T04:29:37;282.30;2278.40
66831;DHT22;53739;44.224;22.528;2023-05-09T04:32:03;282.30;2278.40
66831;DHT22;53739;44.224;22.528;2023-05-09T04:34:29;282.40;2278.40
66831;DHT22;53739;44.224;22.528;2023-05-09T04:36:56;282.40;2278.40
66831;DHT22;53739;44.224;22.528;2023-05-09T04:39:22;282.40;2278.40
66831;DHT22;53739;44.224;22.528;2023-05-09T04:41:48;282.50;2278.40
66831;DHT22;53739;44.224;22.528;2023-05-09T04:44:15;282.50;2278.40
66831;DHT22;53739;44.224;22.528;2023-05-09T04:46:41;282.50;2278.40
66831;DHT22;53739;44.224;22.528;2023-05-09T04:49:06;282.40;2278.40
66831;DHT22;53739;44.224;22.528;2023-05-09T04:51:32;282.40;2278.40
66831;DHT22;53739;44.224;22.528;2023-05-09T04:53:58;282.40;2278.40
66831;DHT22;53739;44.224;22.528;2023-05-09T04:56:24;282.30;2278.40
66831;DHT22;53739;44.224;22.528;2023-05-09T04:58:49;282.30;2278.40
66831;DHT22;53739;44.224;22.528;2023-05-09T05:01:16;282.30;2278.40
66831;DHT22;53739;44.224;22.528;2023-05-09T05:03:41;282.40;2278.40
66831;DHT22;53739;44.224;22.528;2023-05-09T05:06:07;282.40;2278.40
66831;DHT22;53739;44.224;22.528;2023-05-09T05:08:33;282.40;2278.40
66831;DHT22;53739;44.224;22.528;2023-05-09T05:10:59;282.40;2278.40
66831;DHT22;53739;44.224;22.528;2023-05-09T05:13:25;282.30;2278.40
66831;DHT22;53739;44.224;22.528;2023-05-09T05:15:50;282.40;2278.40
66831;DHT22;53739;44.224;22.528;2023-05-09T05:18:17;282.40;2278.40
66831;DHT22;53739;44.224;22.528;2023-05-09T05:20:42;282.30;2278.40
66831;DHT22;53739;44.224;22.528;2023-05-09T05:23:08;282.40;2278.40
66831;DHT22;53739;44.224;22.528;2023-05-09T05:25:35;282.40;2278.40
66831;DHT22;53739;44.224;22.528;2023-05-09T05:28:01;282.40;2278.40
66831;DHT22;53739;44.224;22.528;2023-05-09T05:30:27;282.40;2278.40
66831;DHT22;53739;44.224;22.528;2023-05-09T05:32:52;282.40;2278.40
66831;DHT22;53739;44.224;22.528;2023-05-09T05:35:18;282.40;2278.40
66831;DHT22;53739;44.224;22.528;2023-05-09T05:37:47;282.50;2278.40
66831;DHT22;53739;44.224;22.528;2023-05-09T05:40:13;282.40;2278.40
66831;DHT22;53739;44.224;22.528;2023-05-09T05:42:39;282.50;2278.40
66831;DHT22;53739;44.224;22.528;2023-05-09T05:45:05;282.40;2278.40
66831;DHT22;53739;44.224;22.528;2023-05-09T05:47:32;282.50;2278.40
66831;DHT22;53739;44.224;22.528;2023-05-09T05:49:59;282.40;2278.40
66831;DHT22;53739;44.224;22.528;2023-05-09T05:52:25;282.40;2278.40
66831;DHT22;53739;44.224;22.528;2023-05-09T05:54:52;282.50;2278.40
66831;DHT22;53739;44.224;22.528;2023-05-09T05:57:18;282.50;2278.40
66831;DHT22;53739;44.224;22.528;2023-05-09T05:59:46;282.50;2278.40
66831;DHT22;53739;44.224;22.528;2023-05-09T06:02:12;282.50;2278.40
66831;DHT22;53739;44.224;22.528;2023-05-09T06:04:38;282.50;2278.40
66831;DHT22;53739;44.224;22.528;2023-05-09T06:07:04;282.50;2278.40
66831;DHT22;53739;44.224;22.528;2023-05-09T06:09:30;282.50;2278.40
66831;DHT22;53739;44.224;22.528;2023-05-09T06:11:55;282.50;2278.40
66831;DHT22;53739;44.224;22.528;2023-05-09T06:14:21;282.50;2278.40
66831;DHT22;53739;44.224;22.528;2023-05-09T06:16:47;282.40;2278.40
66831;DHT22;53739;44.224;22.528;2023-05-09T06:19:13;282.50;2278.40
66831;DHT22;53739;44.224;22.528;2023-05-09T06:21:38;282.40;2278.40
66831;DHT22;53739;44.224;22.528;2023-05-09T06:24:04;282.40;2278.40
66831;DHT22;53739;44.224;22.528;2023-05-09T06:26:30;282.30;2278.40
66831;DHT22;53739;44.224;22.528;2023-05-09T06:28:56;282.40;2278.40
66831;DHT22;53739;44.224;22.528;2023-05-09T06:31:22;282.40;2278.40
66831;DHT22;53739;44.224;22.528;2023-05-09T06:33:48;282.30;2278.40
66831;DHT22;53739;44.224;22.528;2023-05-09T06:36:14;282.30;2278.40
66831;DHT22;53739;44.224;22.528;2023-05-09T06:38:39;282.40;2278.40
66831;DHT22;53739;44.224;22.528;2023-05-09T06:41:05;282.40;2278.40
66831;DHT22;53739;44.224;22.528;2023-05-09T06:43:31;282.40;2278.40
66831;DHT22;53739;44.224;22.528;2023-05-09T06:45:57;282.40;2278.40
66831;DHT22;53739;44.224;22.528;2023-05-09T06:48:23;282.50;2278.40
66831;DHT22;53739;44.224;22.528;2023-05-09T06:50:49;282.50;2278.40
66831;DHT22;53739;44.224;22.528;2023-05-09T06:53:15;282.50;2278.40
66831;DHT22;53739;44.224;22.528;2023-05-09T06:55:41;282.50;2278.40
66831;DHT22;53739;44.224;22.528;2023-05-09T06:58:07;282.50;2278.40
66831;DHT22;53739;44.224;22.528;2023-05-09T07:00:33;282.50;2278.40
66831;DHT22;53739;44.224;22.528;2023-05-09T07:02:59;282.50;2278.40
66831;DHT22;53739;44.224;22.528;2023-05-09T07:05:25;282.50;2278.40
66831;DHT22;53739;44.224;22.528;2023-05-09T07:07:51;282.50;2278.40
66831;DHT22;53739;44.224;22.528;2023-05-09T07:10:19;282.50;2278.40
66831;DHT22;53739;44.224;22.528;2023-05-09T07:12:46;282.50;2278.40
66831;DHT22;53739;44.224;22.528;2023-05-09T07:15:12;282.50;2278.40
66831;DHT22;53739;44.224;22.528;2023-05-09T07:17:38;282.50;2278.40
66831;DHT22;53739;44.224;22.528;2023-05-09T07:20:05;282.40;2278.40
66831;DHT22;53739;44.224;22.528;2023-05-09T07:22:31;282.50;2278.40
66831;DHT22;53739;44.224;22.528;2023-05-09T07:24:57;282.50;2278.40
66831;DHT22;53739;44.224;22.528;2023-05-09T07:27:23;282.50;2278.40
66831;DHT22;53739;44.224;22.528;2023-05-09T07:29:49;282.50;2278.40
66831;DHT22;53739;44.224;22.528;2023-05-09T07:32:17;307.20;2304.00
66831;DHT22;53739;44.224;22.528;2023-05-09T07:34:43;307.20;2304.00
66831;DHT22;53739;44.224;22.528;2023-05-09T07:37:09;282.50;2278.40
66831;DHT22;53739;44.224;22.528;2023-05-09T07:39:35;307.20;2304.00
66831;DHT22;53739;44.224;22.528;2023-05-09T07:42:01;307.20;2304.00
66831;DHT22;53739;44.224;22.528;2023-05-09T07:44:26;307.20;2304.00
66831;DHT22;53739;44.224;22.528;2023-05-09T07:46:52;282.50;2278.40
66831;DHT22;53739;44.224;22.528;2023-05-09T07:49:20;307.20;2304.00
66831;DHT22;53739;44.224;22.528;2023-05-09T07:51:46;307.20;2304.00
66831;DHT22;53739;44.224;22.528;2023-05-09T07:54:12;282.50;2278.40
66831;DHT22;53739;44.224;22.528;2023-05-09T07:56:38;282.50;2278.40
66831;DHT22;53739;44.224;22.528;2023-05-09T07:59:04;282.50;2278.40
66831;DHT22;53739;44.224;22.528;2023-05-09T08:01:29;282.50;2278.40
66831;DHT22;53739;44.224;22.528;2023-05-09T08:03:55;282.50;2278.40
66831;DHT22;53739;44.224;22.528;2023-05-09T08:06:21;307.20;2304.00
66831;DHT22;53739;44.224;22.528;2023-05-09T08:08:47;282.50;2278.40
66831;DHT22;53739;44.224;22.528;2023-05-09T08:11:13;282.50;2278.40
66831;DHT22;53739;44.224;22.528;2023-05-09T08:13:38;307.20;2304.00
66831;DHT22;53739;44.224;22.528;2023-05-09T08:16:04;307.30;2304.00
66831;DHT22;53739;44.224;22.528;2023-05-09T08:18:30;307.30;2304.00
66831;DHT22;53739;44.224;22.528;2023-05-09T08:20:56;307.30;2304.00
66831;DHT22;53739;44.224;22.528;2023-05-09T08:23:24;307.30;2304.00
66831;DHT22;53739;44.224;22.528;2023-05-09T08:25:54;307.30;2304.00
66831;DHT22;53739;44.224;22.528;2023-05-09T08:28:19;307.30;2304.00
66831;DHT22;53739;44.224;22.528;2023-05-09T08:30:51;307.30;2304.00
66831;DHT22;53739;44.224;22.528;2023-05-09T08:33:18;307.30;2304.00
66831;DHT22;53739;44.224;22.528;2023-05-09T08:35:44;307.30;2304.00
66831;DHT22;53739;44.224;22.528;2023-05-09T08:38:10;307.30;2304.00
66831;DHT22;53739;44.224;22.528;2023-05-09T08:40:36;307.30;2304.00
66831;DHT22;53739;44.224;22.528;2023-05-09T08:43:05;307.30;2304.00
66831;DHT22;53739;44.224;22.528;2023-05-09T08:45:34;307.30;2304.00
66831;DHT22;53739;44.224;22.528;2023-05-09T08:48:05;307.30;2304.00
66831;DHT22;53739;44.224;22.528;2023-05-09T08:50:31;307.40;2304.00
66831;DHT22;53739;44.224;22.528;2023-05-09T08:52:57;307.40;2304.00
66831;DHT22;53739;44.224;22.528;2023-05-09T08:55:24;307.30;2304.00
66831;DHT22;53739;44.224;22.528;2023-05-09T08:57:51;307.30;2304.00
66831;DHT22;53739;44.224;22.528;2023-05-09T09:00:17;307.20;2304.00
66831;DHT22;53739;44.224;22.528;2023-05-09T09:02:45;307.30;2304.00
66831;DHT22;53739;44.224;22.528;2023-05-09T09:05:11;307.30;2304.00
66831;DHT22;53739;44.224;22.528;2023-05-09T09:07:37;307.40;2304.00
66831;DHT22;53739;44.224;22.528;2023-05-09T09:10:05;307.40;2304.00
66831;DHT22;53739;44.224;22.528;2023-05-09T09:12:33;307.50;2304.00
66831;DHT22;53739;44.224;22.528;2023-05-09T09:15:03;307.60;2304.00
66831;DHT22;53739;44.224;22.528;2023-05-09T09:17:30;307.60;2304.00
66831;DHT22;53739;44.224;22.528;2023-05-09T09:19:59;307.60;2304.00
66831;DHT22;53739;44.224;22.528;2023-05-09T09:22:32;307.60;2304.00
66831;DHT22;53739;44.224;22.528;2023-05-09T09:24:59;307.60;2304.00
66831;DHT22;53739;44.224;22.528;2023-05-09T09:27:26;307.60;2304.00
66831;DHT22;53739;44.224;22.528;2023-05-09T09:29:52;307.50;2304.00
66831;DHT22;53739;44.224;22.528;2023-05-09T09:32:18;307.40;2304.00
66831;DHT22;53739;44.224;22.528;2023-05-09T09:34:48;307.40;2304.00
66831;DHT22;53739;44.224;22.528;2023-05-09T09:37:21;307.50;2304.00
66831;DHT22;53739;44.224;22.528;2023-05-09T09:39:53;307.40;2304.00
66831;DHT22;53739;44.224;22.528;2023-05-09T09:42:20;307.50;2304.00
66831;DHT22;53739;44.224;22.528;2023-05-09T09:45:12;307.50;2304.00
66831;DHT22;53739;44.224;22.528;2023-05-09T09:47:37;307.60;2304.00
66831;DHT22;53739;44.224;22.528;2023-05-09T09:50:10;307.60;2304.00
66831;DHT22;53739;44.224;22.528;2023-05-09T09:52:44;307.60;2304.00
66831;DHT22;53739;44.224;22.528;2023-05-09T09:55:13;307.60;2304.00
66831;DHT22;53739;44.224;22.528;2023-05-09T09:57:39;307.70;2304.00
66831;DHT22;53739;44.224;22.528;2023-05-09T10:00:06;307.70;2304.00
66831;DHT22;53739;44.224;22.528;2023-05-09T10:02:32;307.60;2304.00
66831;DHT22;53739;44.224;22.528;2023-05-09T10:05:08;307.50;2304.00
66831;DHT22;53739;44.224;22.528;2023-05-09T10:07:34;307.50;2304.00
66831;DHT22;53739;44.224;22.528;2023-05-09T10:10:04;307.60;2304.00
66831;DHT22;53739;44.224;22.528;2023-05-09T10:12:35;307.60;2304.00
66831;DHT22;53739;44.224;22.528;2023-05-09T10:15:07;307.50;2304.00
66831;DHT22;53739;44.224;22.528;2023-05-09T10:17:33;307.50;2304.00
66831;DHT22;53739;44.224;22.528;2023-05-09T10:20:20;307.50;2304.00
66831;DHT22;53739;44.224;22.528;2023-05-09T10:22:46;307.60;2304.00
66831;DHT22;53739;44.224;22.528;2023-05-09T10:25:20;307.60;2304.00
66831;DHT22;53739;44.224;22.528;2023-05-09T10:27:47;307.60;2304.00
66831;DHT22;53739;44.224;22.528;2023-05-09T10:30:18;307.50;2304.00
66831;DHT22;53739;44.224;22.528;2023-05-09T10:32:47;307.60;2304.00
66831;DHT22;53739;44.224;22.528;2023-05-09T10:35:18;307.60;2304.00
66831;DHT22;53739;44.224;22.528;2023-05-09T10:37:45;307.60;2304.00
66831;DHT22;53739;44.224;22.528;2023-05-09T10:40:11;307.60;2304.00
66831;DHT22;53739;44.224;22.528;2023-05-09T10:42:43;307.60;2304.00
66831;DHT22;53739;44.224;22.528;2023-05-09T10:45:12;307.60;2304.00
66831;DHT22;53739;44.224;22.528;2023-05-09T10:47:39;307.60;2304.00
66831;DHT22;53739;44.224;22.528;2023-05-09T10:50:11;307.60;2304.00
66831;DHT22;53739;44.224;22.528;2023-05-09T10:53:05;307.60;2304.00
66831;DHT22;53739;44.224;22.528;2023-05-09T10:55:55;307.60;2304.00
66831;DHT22;53739;44.224;22.528;2023-05-09T10:58:28;307.60;2304.00
66831;DHT22;53739;44.224;22.528;2023-05-09T11:00:56;307.70;2304.00
66831;DHT22;53739;44.224;22.528;2023-05-09T11:03:24;307.60;2304.00
66831;DHT22;53739;44.224;22.528;2023-05-09T11:05:56;307.60;2304.00
66831;DHT22;53739;44.224;22.528;2023-05-09T11:08:30;307.70;2304.00
66831;DHT22;53739;44.224;22.528;2023-05-09T11:11:04;307.70;2304.00
66831;DHT22;53739;44.224;22.528;2023-05-09T11:13:31;307.70;2304.00
66831;DHT22;53739;44.224;22.528;2023-05-09T11:18:31;307.80;2304.00
66831;DHT22;53739;44.224;22.528;2023-05-09T11:20:57;307.80;2304.00
66831;DHT22;53739;44.224;22.528;2023-05-09T11:23:28;307.80;2304.00
66831;DHT22;53739;44.224;22.528;2023-05-09T11:26:04;307.80;2304.00
66831;DHT22;53739;44.224;22.528;2023-05-09T11:28:36;307.90;2304.00
66831;DHT22;53739;44.224;22.528;2023-05-09T11:31:12;307.90;2304.00
66831;DHT22;53739;44.224;22.528;2023-05-09T11:33:40;308.00;2304.00
66831;DHT22;53739;44.224;22.528;2023-05-09T11:36:20;308.00;2304.00
66831;DHT22;53739;44.224;22.528;2023-05-09T11:39:08;308.00;2304.00
66831;DHT22;53739;44.224;22.528;2023-05-09T11:41:47;308.00;2304.00
66831;DHT22;53739;44.224;22.528;2023-05-09T11:44:18;308.10;2304.00
66831;DHT22;53739;44.224;22.528;2023-05-09T11:46:45;308.10;2304.00
66831;DHT22;53739;44.224;22.528;2023-05-09T11:49:12;308.00;2304.00
66831;DHT22;53739;44.224;22.528;2023-05-09T11:51:38;307.90;2304.00
66831;DHT22;53739;44.224;22.528;2023-05-09T11:54:05;307.80;2304.00
66831;DHT22;53739;44.224;22.528;2023-05-09T11:56:33;307.90;2304.00
66831;DHT22;53739;44.224;22.528;2023-05-09T11:58:59;308.00;2304.00
66831;DHT22;53739;44.224;22.528;2023-05-09T12:01:27;308.10;2304.00
66831;DHT22;53739;44.224;22.528;2023-05-09T12:03:53;308.10;2304.00
66831;DHT22;53739;44.224;22.528;2023-05-09T12:06:19;332.80;2329.60
66831;DHT22;53739;44.224;22.528;2023-05-09T12:08:46;332.80;2329.60
66831;DHT22;53739;44.224;22.528;2023-05-09T12:11:12;332.80;2329.60
66831;DHT22;53739;44.224;22.528;2023-05-09T12:13:49;332.90;2329.60
66831;DHT22;53739;44.224;22.528;2023-05-09T12:16:17;332.90;2329.60
66831;DHT22;53739;44.224;22.528;2023-05-09T12:18:52;332.90;2329.60
66831;DHT22;53739;44.224;22.528;2023-05-09T12:21:19;332.80;2329.60
66831;DHT22;53739;44.224;22.528;2023-05-09T12:23:46;332.80;2329.60
66831;DHT22;53739;44.224;22.528;2023-05-09T12:26:12;332.80;2329.60
66831;DHT22;53739;44.224;22.528;2023-05-09T12:28:39;332.90;2329.60
66831;DHT22;53739;44.224;22.528;2023-05-09T12:31:05;332.90;2329.60
66831;DHT22;53739;44.224;22.528;2023-05-09T12:33:31;332.80;2329.60
66831;DHT22;53739;44.224;22.528;2023-05-09T12:36:06;332.80;2329.60
66831;DHT22;53739;44.224;22.528;2023-05-09T12:38:32;332.80;2329.60
66831;DHT22;53739;44.224;22.528;2023-05-09T12:41:02;332.80;2329.60
66831;DHT22;53739;44.224;22.528;2023-05-09T12:43:30;332.80;2329.60
66831;DHT22;53739;44.224;22.528;2023-05-09T12:45:57;332.90;2329.60
66831;DHT22;53739;44.224;22.528;2023-05-09T12:48:23;332.90;2329.60
66831;DHT22;53739;44.224;22.528;2023-05-09T12:50:50;333.00;2329.60
66831;DHT22;53739;44.224;22.528;2023-05-09T12:53:27;333.00;2329.60
66831;DHT22;53739;44.224;22.528;2023-05-09T12:56:01;332.90;2329.60
66831;DHT22;53739;44.224;22.528;2023-05-09T12:58:31;332.90;2329.60
66831;DHT22;53739;44.224;22.528;2023-05-09T13:00:58;332.90;2329.60
66831;DHT22;53739;44.224;22.528;2023-05-09T13:03:25;332.90;2329.60
66831;DHT22;53739;44.224;22.528;2023-05-09T13:06:01;333.00;2329.60
66831;DHT22;53739;44.224;22.528;2023-05-09T13:08:28;333.00;2329.60
66831;DHT22;53739;44.224;22.528;2023-05-09T13:10:54;332.90;2329.60
66831;DHT22;53739;44.224;22.528;2023-05-09T13:13:20;333.00;2329.60
66831;DHT22;53739;44.224;22.528;2023-05-09T13:15:47;333.00;2329.60
66831;DHT22;53739;44.224;22.528;2023-05-09T13:18:19;333.10;2329.60
66831;DHT22;53739;44.224;22.528;2023-05-09T13:20:46;333.10;2329.60
66831;DHT22;53739;44.224;22.528;2023-05-09T13:23:14;333.00;2329.60
66831;DHT22;53739;44.224;22.528;2023-05-09T13:25:40;332.90;2329.60
66831;DHT22;53739;44.224;22.528;2023-05-09T13:28:06;332.90;2329.60
66831;DHT22;53739;44.224;22.528;2023-05-09T13:30:43;332.90;2329.60
66831;DHT22;53739;44.224;22.528;2023-05-09T13:33:10;333.20;2329.60
66831;DHT22;53739;44.224;22.528;2023-05-09T13:35:36;333.30;2329.60
66831;DHT22;53739;44.224;22.528;2023-05-09T13:38:02;333.40;2329.60
66831;DHT22;53739;44.224;22.528;2023-05-09T13:40:28;333.50;2329.60
66831;DHT22;53739;44.224;22.528;2023-05-09T13:42:54;333.60;2329.60
66831;DHT22;53739;44.224;22.528;2023-05-09T13:45:20;333.50;2329.60
66831;DHT22;53739;44.224;22.528;2023-05-09T13:47:48;333.60;2329.60
66831;DHT22;53739;44.224;22.528;2023-05-09T13:50:14;333.70;2329.60
66831;DHT22;53739;44.224;22.528;2023-05-09T13:52:40;333.70;2329.60
66831;DHT22;53739;44.224;22.528;2023-05-09T13:55:06;333.70;2329.60
66831;DHT22;53739;44.224;22.528;2023-05-09T13:57:35;358.40;2329.60
66831;DHT22;53739;44.224;22.528;2023-05-09T14:00:01;333.70;2329.60
66831;DHT22;53739;44.224;22.528;2023-05-09T14:02:28;358.40;2329.60
66831;DHT22;53739;44.224;22.528;2023-05-09T14:04:54;358.40;2329.60
66831;DHT22;53739;44.224;22.528;2023-05-09T14:07:20;358.40;2329.60
66831;DHT22;53739;44.224;22.528;2023-05-09T14:09:46;333.70;2329.60
66831;DHT22;53739;44.224;22.528;2023-05-09T14:12:12;333.70;2329.60
66831;DHT22;53739;44.224;22.528;2023-05-09T14:14:38;358.40;2329.60
66831;DHT22;53739;44.224;22.528;2023-05-09T14:17:03;358.50;2329.60
66831;DHT22;53739;44.224;22.528;2023-05-09T14:19:29;358.50;2329.60
66831;DHT22;53739;44.224;22.528;2023-05-09T14:21:55;333.70;2073.60
66831;DHT22;53739;44.224;22.528;2023-05-09T14:24:21;333.70;2329.60
66831;DHT22;53739;44.224;22.528;2023-05-09T14:26:47;358.40;2329.60
66831;DHT22;53739;44.224;22.528;2023-05-09T14:29:12;358.50;2329.60
66831;DHT22;53739;44.224;22.528;2023-05-09T14:31:38;358.50;2329.60
66831;DHT22;53739;44.224;22.528;2023-05-09T14:34:04;358.50;2329.60
66831;DHT22;53739;44.224;22.528;2023-05-09T14:36:39;358.40;2329.60
66831;DHT22;53739;44.224;22.528;2023-05-09T14:39:10;358.40;2252.80
66831;DHT22;53739;44.224;22.528;2023-05-09T14:41:37;358.50;2329.60
66831;DHT22;53739;44.224;22.528;2023-05-09T14:44:03;358.50;2329.60
66831;DHT22;53739;44.224;22.528;2023-05-09T14:46:28;358.40;2329.60
66831;DHT22;53739;44.224;22.528;2023-05-09T14:48:54;358.40;2329.60
66831;DHT22;53739;44.224;22.528;2023-05-09T14:51:22;358.40;2329.60